CheckWX is a tool to help pilots better visualize weather data.  It is not intended as a substitute for an official pre-flight weather briefing.

12:03:38 UTC

OOMS TAF
Muscat International Airport
Muscat, Oman
TAF OOMS 251100Z 2512/2618 05012KT 8000 NSC PROB30 TEMPO 2515/2519 SCT040 BECMG 2516/2518 VRB02KT BECMG 2523/2601 22014KT BECMG 2606/2608 35012KT BECMG 2616/2618 VRB02KT

Mar-25@
12:00 UTC

Mar-25 @ 12:00 UTC

Mar-25@
16:00 UTC

Mar-25 @ 16:00 UTC

TAF OOMS 251100Z 2512/2618 05012KT 8000 NSC
Wind
  • 050° at 12 KTS
Cloud Levels
  • No significant clouds

Mar-25@
15:00 UTC

Mar-25 @ 15:00 UTC

Mar-25@
19:00 UTC

Mar-25 @ 19:00 UTC

PROB30 TEMPO 2515/2519 SCT040

Temporary - 30% Likelihood

Temporary - 30% Likelihood during this time.

Cloud Levels
  • Scattered at 4,000' AGL

Mar-25@
16:00 UTC

Mar-25 @ 16:00 UTC

Mar-25@
23:00 UTC

Mar-25 @ 23:00 UTC

BECMG 2516/2518 VRB02KT

Becoming

Becoming Conditions expected by Mon, Mar 25, 2019 @ 18:00 UTC

Wind
  • Variable at 2 KTS
Cloud Levels
  • No significant clouds

Mar-25@
23:00 UTC

Mar-25 @ 23:00 UTC

Mar-26@
06:00 UTC

Mar-26 @ 06:00 UTC

BECMG 2523/2601 22014KT

Becoming

Becoming Conditions expected by Tue, Mar 26, 2019 @ 01:00 UTC

Wind
  • 220° at 14 KTS
Cloud Levels
  • No significant clouds

Mar-26@
06:00 UTC

Mar-26 @ 06:00 UTC

Mar-26@
16:00 UTC

Mar-26 @ 16:00 UTC

BECMG 2606/2608 35012KT

Becoming

Becoming Conditions expected by Tue, Mar 26, 2019 @ 08:00 UTC

Wind
  • 350° at 12 KTS
Cloud Levels
  • No significant clouds

Mar-26@
16:00 UTC

Mar-26 @ 16:00 UTC

Mar-26@
18:00 UTC

Mar-26 @ 18:00 UTC

BECMG 2616/2618 VRB02KT

Becoming

Becoming Conditions expected by Tue, Mar 26, 2019 @ 18:00 UTC

Wind
  • Variable at 2 KTS
Cloud Levels
  • No significant clouds